Time;durP1;ratioP1;P1;durP2;ratioP2;P2;SDS_P1;SDS_P2;PMS_P1;PMS_P2;Temp;Humidity;BMP_temperature;BMP_pressure;BME280_temperature;BME280_humidity;BME280_pressure;Samples;Min_cycle;Max_cycle;Signal;HPM_P1;HPM_P2
2021/04/14 00:02:21;;;;;;;1999.90;999.90;;;;;;;2.80;100.00;-17985.31;5097695;28;20708;-35
2021/04/14 00:05:10;;;;;;;1999.90;999.90;;;;;;;2.73;100.00;-17983.44;5097677;28;20495;-33
2021/04/14 00:07:56;;;;;;;1999.90;999.90;;;;;;;2.75;100.00;-17983.97;5097985;28;20441;-33
2021/04/14 00:10:43;;;;;;;1999.90;999.90;;;;;;;2.83;100.00;-17986.13;5097281;28;20480;-34
2021/04/14 00:13:33;;;;;;;1999.90;999.90;;;;;;;2.87;100.00;-17987.06;5097521;28;20883;-32
2021/04/14 00:16:23;;;;;;;1999.90;999.90;;;;;;;2.79;100.00;-17985.06;5097444;28;20449;-32
2021/04/14 00:19:10;;;;;;;1999.90;999.90;;;;;;;2.70;100.00;-17982.63;5097573;28;20858;-33
2021/04/14 00:21:56;;;;;;;1999.90;999.90;;;;;;;2.73;100.00;-17983.44;5097170;28;20432;-32
2021/04/14 00:24:42;;;;;;;1999.90;999.90;;;;;;;2.77;100.00;-17984.50;5097575;28;20499;-33
2021/04/14 00:27:28;;;;;;;1999.90;999.90;;;;;;;2.56;100.00;-17978.88;5097448;28;20594;-34
2021/04/14 00:30:15;;;;;;;1999.90;999.90;;;;;;;2.54;100.00;-17978.47;5097144;28;20441;-36
2021/04/14 00:33:00;;;;;;;1999.90;999.90;;;;;;;2.50;100.00;-17977.25;5097413;28;20436;-34
2021/04/14 00:35:48;;;;;;;1999.90;999.90;;;;;;;2.58;100.00;-17979.41;5096763;28;20461;-37
2021/04/14 00:38:35;;;;;;;1999.90;999.90;;;;;;;2.62;100.00;-17980.59;5097053;28;20507;-36
2021/04/14 00:41:23;;;;;;;1999.90;999.90;;;;;;;2.57;100.00;-17979.13;5097223;28;20591;-34
2021/04/14 00:44:09;;;;;;;1999.90;999.90;;;;;;;2.51;100.00;-17977.66;5096921;28;20483;-36
2021/04/14 00:46:55;;;;;;;1999.90;999.90;;;;;;;2.39;100.00;-17974.44;5096299;28;20553;-32
2021/04/14 00:49:41;;;;;;;1999.90;999.90;;;;;;;2.39;100.00;-17974.56;5096637;28;20527;-35
2021/04/14 00:52:28;;;;;;;1999.90;999.90;;;;;;;2.42;100.00;-17975.22;5096916;28;20480;-33
2021/04/14 00:55:16;;;;;;;1999.90;999.90;;;;;;;2.40;100.00;-17974.69;5096953;28;20542;-35
2021/04/14 00:58:01;;;;;;;1999.90;999.90;;;;;;;2.23;100.00;-17970.25;5096748;28;20437;-31
2021/04/14 01:00:49;;;;;;;1999.90;999.90;;;;;;;2.28;100.00;-17971.47;5096752;28;20456;-33
2021/04/14 01:03:37;;;;;;;1999.90;999.90;;;;;;;2.18;100.00;-17968.91;5096179;28;20437;-34
2021/04/14 01:06:28;;;;;;;1999.90;999.90;;;;;;;2.28;100.00;-17971.47;5096276;28;20441;-34
2021/04/14 01:09:15;;;;;;;1999.90;999.90;;;;;;;2.21;100.00;-17969.72;5096956;28;20445;-38
2021/04/14 01:12:07;;;;;;;1999.90;999.90;;;;;;;2.10;100.00;-17966.63;5096516;28;20492;-33
2021/04/14 01:14:52;;;;;;;1999.90;999.90;;;;;;;2.18;100.00;-17968.91;5096547;28;20445;-32
2021/04/14 01:17:38;;;;;;;1999.90;999.90;;;;;;;2.17;100.00;-17968.63;5096611;28;20748;-35
2021/04/14 01:20:25;;;;;;;1999.90;999.90;;;;;;;2.19;100.00;-17969.19;5096702;28;20503;-33
2021/04/14 01:23:17;;;;;;;1999.90;999.90;;;;;;;2.19;100.00;-17969.19;5096357;28;20782;-36
2021/04/14 01:26:03;;;;;;;1999.90;999.90;;;;;;;2.06;100.00;-17965.69;5097593;28;20543;-35
2021/04/14 01:28:51;;;;;;;1999.90;999.90;;;;;;;2.03;100.00;-17964.88;5096858;28;20512;-31
2021/04/14 01:31:39;;;;;;;1999.90;999.90;;;;;;;2.16;100.00;-17968.25;5107118;28;20480;-31
2021/04/14 01:34:28;;;;;;;1999.90;999.90;;;;;;;2.14;100.00;-17967.84;5108891;28;20598;-32
2021/04/14 01:37:14;;;;;;;1999.90;999.90;;;;;;;1.99;100.00;-17963.78;5116592;28;20819;-34
2021/04/14 01:40:01;;;;;;;1999.90;999.90;;;;;;;1.93;100.00;-17962.19;5116528;28;20440;-31
2021/04/14 01:42:47;;;;;;;1999.90;999.90;;;;;;;1.90;100.00;-17961.38;5116641;28;20440;-32
2021/04/14 01:45:38;;;;;;;1999.90;999.90;;;;;;;2.03;100.00;-17965.00;5116554;28;20444;-31
2021/04/14 01:48:24;;;;;;;1999.90;999.90;;;;;;;2.07;100.00;-17966.09;5116756;28;20436;-37
2021/04/14 01:51:10;;;;;;;1999.90;999.90;;;;;;;1.94;100.00;-17962.44;5116494;28;20480;-32
2021/04/14 01:53:59;;;;;;;1999.90;999.90;;;;;;;1.93;100.00;-17962.31;5116535;28;20502;-33
2021/04/14 01:56:46;;;;;;;1999.90;999.90;;;;;;;1.91;100.00;-17961.63;5116904;28;20448;-34
2021/04/14 01:59:33;;;;;;;1999.90;999.90;;;;;;;1.98;100.00;-17963.53;5120902;28;20510;-31
2021/04/14 02:02:19;;;;;;;1999.90;999.90;;;;;;;1.96;100.00;-17963.13;5120526;28;20452;-30
2021/04/14 02:05:07;;;;;;;1999.90;999.90;;;;;;;1.95;100.00;-17962.84;5120659;28;20715;-32
2021/04/14 02:07:54;;;;;;;1999.90;999.90;;;;;;;1.83;100.00;-17959.50;5120686;28;20610;-34
2021/04/14 02:10:40;;;;;;;1999.90;999.90;;;;;;;1.87;100.00;-17960.56;5120318;28;20483;-34
2021/04/14 02:13:31;;;;;;;1999.90;999.90;;;;;;;1.88;100.00;-17960.84;5120084;28;20459;-33
2021/04/14 02:16:21;;;;;;;1999.90;999.90;;;;;;;1.83;100.00;-17959.50;5120437;28;20571;-35
2021/04/14 02:19:08;;;;;;;1999.90;999.90;;;;;;;1.83;100.00;-17959.50;5120213;28;20436;-33
2021/04/14 02:21:55;;;;;;;1999.90;999.90;;;;;;;1.80;100.00;-17958.69;5120142;28;20730;-31
2021/04/14 02:24:41;;;;;;;1999.90;999.90;;;;;;;1.83;100.00;-17959.50;5120506;28;20580;-32
2021/04/14 02:27:29;;;;;;;1999.90;999.90;;;;;;;1.86;100.00;-17960.28;5120468;28;20444;-32
2021/04/14 02:30:21;;;;;;;1999.90;999.90;;;;;;;1.80;100.00;-17958.81;5120278;28;20439;-32
2021/04/14 02:33:08;;;;;;;1999.90;999.90;;;;;;;1.79;100.00;-17958.41;5119843;28;20483;-35
2021/04/14 02:35:55;;;;;;;1999.90;999.90;;;;;;;1.75;100.00;-17957.34;5120147;28;20440;-31
2021/04/14 02:38:40;;;;;;;1999.90;999.90;;;;;;;1.74;100.00;-17957.19;5120151;28;20932;-32
2021/04/14 02:41:26;;;;;;;1999.90;999.90;;;;;;;1.71;100.00;-17956.53;5120348;28;20436;-33
2021/04/14 02:44:12;;;;;;;1999.90;999.90;;;;;;;1.70;100.00;-17956.25;5120015;28;20602;-31
2021/04/14 02:47:00;;;;;;;1999.90;999.90;;;;;;;1.70;100.00;-17956.25;5120017;28;20444;-36
2021/04/14 02:49:46;;;;;;;1999.90;999.90;;;;;;;1.67;100.00;-17955.44;5119427;28;20870;-36
2021/04/14 02:52:32;;;;;;;1999.90;999.90;;;;;;;1.67;100.00;-17955.31;5119481;28;20656;-34
2021/04/14 02:55:19;;;;;;;1999.90;999.90;;;;;;;1.65;100.00;-17954.91;5119838;28;20506;-35
2021/04/14 02:58:04;;;;;;;1999.90;999.90;;;;;;;1.56;100.00;-17952.50;5119572;28;20862;-32
2021/04/14 03:01:44;;;;;;;1999.90;999.90;;;;;;;1.58;100.00;-17953.03;5119440;28;20436;-35
2021/04/14 03:04:38;;;;;;;1999.90;999.90;;;;;;;1.55;100.00;-17952.22;5434274;22;20530;-68
2021/04/14 03:07:24;;;;;;;1999.90;999.90;;;;;;;1.53;100.00;-17951.69;5058656;28;20457;-68
2021/04/14 03:10:11;;;;;;;1999.90;999.90;;;;;;;1.51;100.00;-17951.16;5058281;28;20447;-68
2021/04/14 03:12:58;;;;;;;1999.90;999.90;;;;;;;1.45;100.00;-17949.41;5058196;28;20483;-68
2021/04/14 03:15:50;;;;;;;1999.90;999.90;;;;;;;1.53;100.00;-17951.56;5058306;28;20509;-68
2021/04/14 03:18:35;;;;;;;1999.90;999.90;;;;;;;1.54;100.00;-17951.81;5057887;28;20447;-68
2021/04/14 03:21:22;;;;;;;1999.90;999.90;;;;;;;1.57;100.00;-17952.63;5057742;28;20562;-68
2021/04/14 03:24:11;;;;;;;1999.90;999.90;;;;;;;1.52;100.00;-17951.41;5058318;28;20450;-68
2021/04/14 03:26:56;;;;;;;1999.90;999.90;;;;;;;1.50;100.00;-17950.75;5057897;28;20443;-68
2021/04/14 03:29:45;;;;;;;1999.90;999.90;;;;;;;1.53;100.00;-17951.56;5057954;28;20545;-67
2021/04/14 03:32:31;;;;;;;1999.90;999.90;;;;;;;1.52;100.00;-17951.41;5057821;28;20482;-68
2021/04/14 03:35:18;;;;;;;1999.90;999.90;;;;;;;1.50;100.00;-17950.75;5057887;28;20529;-68
2021/04/14 03:38:05;;;;;;;1999.90;999.90;;;;;;;1.50;100.00;-17950.88;5057682;28;20724;-68
2021/04/14 03:40:51;;;;;;;1999.90;999.90;;;;;;;1.48;100.00;-17950.34;5057974;28;20447;-68
2021/04/14 03:43:37;;;;;;;1999.90;999.90;;;;;;;1.47;100.00;-17950.06;5057524;28;20443;-68
2021/04/14 03:46:25;;;;;;;1999.90;999.90;;;;;;;1.45;100.00;-17949.41;5057719;28;20458;-68
2021/04/14 03:49:13;;;;;;;1999.90;999.90;;;;;;;1.43;100.00;-17948.84;5057903;28;20454;-68
2021/04/14 03:52:02;;;;;;;1999.90;999.90;;;;;;;1.46;100.00;-17949.66;5057450;28;20543;-68
2021/04/14 03:54:49;;;;;;;1999.90;999.90;;;;;;;1.52;100.00;-17951.28;5057731;28;20451;-69
2021/04/14 03:57:37;;;;;;;1999.90;999.90;;;;;;;1.55;100.00;-17952.22;5057564;28;20951;-69
2021/04/14 04:00:25;;;;;;;1999.90;999.90;;;;;;;1.51;100.00;-17951.00;5057292;28;20896;-69
2021/04/14 04:03:10;;;;;;;1999.90;999.90;;;;;;;1.47;100.00;-17950.06;5057147;28;20447;-69
2021/04/14 04:05:59;;;;;;;1999.90;999.90;;;;;;;1.41;100.00;-17948.31;5057418;28;20731;-69
2021/04/14 04:08:45;;;;;;;1999.90;999.90;;;;;;;1.52;100.00;-17951.28;5057715;28;20525;-69
2021/04/14 04:11:32;;;;;;;1999.90;999.90;;;;;;;1.54;100.00;-17951.94;5057113;28;20890;-69
2021/04/14 04:14:18;;;;;;;1999.90;999.90;;;;;;;1.46;100.00;-17949.78;5056952;28;20521;-69
2021/04/14 04:17:03;;;;;;;1999.90;999.90;;;;;;;1.52;100.00;-17951.28;5056954;28;20738;-68
2021/04/14 04:19:49;;;;;;;1999.90;999.90;;;;;;;1.43;100.00;-17949.00;5056148;28;20561;-69
2021/04/14 04:22:35;;;;;;;1999.90;999.90;;;;;;;1.60;100.00;-17953.44;5059467;28;20466;-69
2021/04/14 04:25:21;;;;;;;1999.90;999.90;;;;;;;1.43;100.00;-17949.00;5057598;28;20439;-69
2021/04/14 04:28:08;;;;;;;1999.90;999.90;;;;;;;1.45;100.00;-17949.53;5057033;28;20867;-70
2021/04/14 04:30:56;;;;;;;1999.90;999.90;;;;;;;1.46;100.00;-17949.78;5056569;28;20553;-70
2021/04/14 04:33:41;;;;;;;1999.90;999.90;;;;;;;1.45;100.00;-17949.41;5056861;28;20444;-70
2021/04/14 04:36:28;;;;;;;1999.90;999.90;;;;;;;1.48;100.00;-17950.19;5056423;28;20447;-69
2021/04/14 04:39:14;;;;;;;1999.90;999.90;;;;;;;1.49;100.00;-17950.59;5053803;28;20517;-69
2021/04/14 04:42:00;;;;;;;1999.90;999.90;;;;;;;1.58;100.00;-17952.91;5056985;28;21015;-69
2021/04/14 04:44:46;;;;;;;1999.90;999.90;;;;;;;1.60;100.00;-17953.56;5056380;28;20462;-69
2021/04/14 04:47:32;;;;;;;1999.90;999.90;;;;;;;1.66;100.00;-17955.19;5056956;28;20451;-69
2021/04/14 04:50:27;;;;;;;1999.90;999.90;;;;;;;1.67;100.00;-17955.44;5056559;28;20439;-69
2021/04/14 04:53:15;;;;;;;1999.90;999.90;;;;;;;1.71;100.00;-17956.53;5055969;28;20443;-69
2021/04/14 04:56:01;;;;;;;1999.90;999.90;;;;;;;1.68;100.00;-17955.72;5056147;28;20984;-69
2021/04/14 04:58:47;;;;;;;1999.90;999.90;;;;;;;1.62;100.00;-17954.09;5056018;28;20462;-69
2021/04/14 05:01:35;;;;;;;1999.90;999.90;;;;;;;1.76;100.00;-17957.59;5056393;28;20443;-70
2021/04/14 05:04:22;;;;;;;1999.90;999.90;;;;;;;1.87;100.00;-17960.69;5055924;28;20826;-69
2021/04/14 05:07:09;;;;;;;1999.90;999.90;;;;;;;1.72;100.00;-17956.66;5056131;28;20447;-69
2021/04/14 05:09:54;;;;;;;1999.90;999.90;;;;;;;1.90;100.00;-17961.38;5055547;28;20616;-69
2021/04/14 05:12:40;;;;;;;1999.90;999.90;;;;;;;1.97;100.00;-17963.41;5055816;28;20442;-69
2021/04/14 05:15:29;;;;;;;1999.90;999.90;;;;;;;2.08;100.00;-17966.34;5055775;28;20447;-69
2021/04/14 05:18:16;;;;;;;1999.90;999.90;;;;;;;2.14;100.00;-17967.84;5056011;28;20553;-70
2021/04/14 05:21:02;;;;;;;1999.90;999.90;;;;;;;2.23;100.00;-17970.25;5055884;28;20447;-69
2021/04/14 05:23:51;;;;;;;1999.90;999.90;;;;;;;2.29;100.00;-17971.88;5055488;28;20450;-69
2021/04/14 05:26:38;;;;;;;1999.90;999.90;;;;;;;2.31;100.00;-17972.41;5055894;28;20590;-70
2021/04/14 05:29:24;;;;;;;1999.90;999.90;;;;;;;2.41;100.00;-17975.09;5055525;28;20443;-69
2021/04/14 05:32:10;;;;;;;1999.90;999.90;;;;;;;2.54;100.00;-17978.31;5056128;28;20541;-68
2021/04/14 05:34:59;;;;;;;1999.90;999.90;;;;;;;2.66;100.00;-17981.69;5059772;28;20446;-68
2021/04/14 05:37:44;;;;;;;1999.90;999.90;;;;;;;2.84;100.00;-17986.25;5059775;28;20590;-71
2021/04/14 05:40:31;;;;;;;1999.90;999.90;;;;;;;3.13;100.00;-17993.94;5059791;28;20439;-71
2021/04/14 05:43:20;;;;;;;1999.90;999.90;;;;;;;3.33;100.00;-17999.44;5059859;28;20632;-72
2021/04/14 05:46:07;;;;;;;1999.90;999.90;;;;;;;3.49;100.00;-18003.59;5059161;28;20463;-71
2021/04/14 05:48:53;;;;;;;1999.90;999.90;;;;;;;3.64;100.00;-18007.63;5058958;28;20751;-71
2021/04/14 05:51:40;;;;;;;1999.90;999.90;;;;;;;3.89;100.00;-18014.09;5058221;28;20447;-71
2021/04/14 05:54:26;;;;;;;1999.90;999.90;;;;;;;3.97;100.00;-18016.25;5059720;28;20446;-71
2021/04/14 05:57:15;;;;;;;1999.90;999.90;;;;;;;4.25;100.00;-18023.63;5059168;28;20724;-71
2021/04/14 06:00:02;;;;;;;1999.90;999.90;;;;;;;4.35;100.00;-18026.31;5059012;28;20443;-71
2021/04/14 06:02:51;;;;;;;1999.90;999.90;;;;;;;4.40;100.00;-18027.66;5059140;28;20636;-71
2021/04/14 06:05:37;;;;;;;1999.90;999.90;;;;;;;4.46;100.00;-18029.28;5018510;28;20445;-70
2021/04/14 06:08:23;;;;;;;1999.90;999.90;;;;;;;4.70;100.00;-18035.72;5019096;28;20507;-71
2021/04/14 06:11:10;;;;;;;1999.90;999.90;;;;;;;5.14;100.00;-18047.25;5018822;28;20441;-71
2021/04/14 06:13:56;;;;;;;1999.90;999.90;;;;;;;5.63;100.00;-18060.28;5018940;28;20608;-71
2021/04/14 06:16:42;;;;;;;1999.90;999.90;;;;;;;6.35;100.00;-18079.34;5018762;28;20205;-72
2021/04/14 06:19:29;;;;;;;1999.90;999.90;;;;;;;7.16;100.00;-18100.81;5019142;28;20199;-72
2021/04/14 06:22:15;;;;;;;1999.90;999.90;;;;;;;8.13;100.00;-18126.25;5018850;28;20229;-72
2021/04/14 06:25:02;;;;;;;1999.90;999.90;;;;;;;8.83;98.61;-18144.75;5018264;28;20618;-72
2021/04/14 06:27:54;;;;;;;1999.90;999.90;;;;;;;8.43;93.78;-18134.31;5018779;28;20222;-72
2021/04/14 06:30:43;;;;;;;1999.90;999.90;;;;;;;8.07;95.21;-18124.66;5019286;28;20205;-72
2021/04/14 06:33:33;;;;;;;1999.90;999.90;;;;;;;7.43;98.20;-18107.91;5018829;28;20198;-71
2021/04/14 06:36:19;;;;;;;1999.90;999.90;;;;;;;6.52;100.00;-18083.78;5019139;28;20371;-72
2021/04/14 06:39:05;;;;;;;1999.90;999.90;;;;;;;6.64;100.00;-18087.00;5019184;28;20201;-71
2021/04/14 06:42:12;;;;;;;1999.90;999.90;;;;;;;6.80;100.00;-18091.28;5018984;28;20202;-72
2021/04/14 06:45:09;;;;;;;1999.90;999.90;;;;;;;8.75;94.27;-18142.75;5018099;28;20487;-73
2021/04/14 06:48:11;;;;;;;1999.90;999.90;;;;;;;9.11;87.43;-18152.25;5019114;28;20254;-72
2021/04/14 06:51:02;;;;;;;1999.90;999.90;;;;;;;10.44;75.29;-18187.16;5018750;28;20322;-71
2021/04/14 06:54:01;;;;;;;1999.90;999.90;;;;;;;11.19;72.43;-18207.09;5018147;28;20647;-72
2021/04/14 06:56:52;;;;;;;1999.90;999.90;;;;;;;11.49;70.86;-18214.97;5017739;28;20505;-72
2021/04/14 06:59:39;;;;;;;1999.90;999.90;;;;;;;12.43;65.68;-18239.81;5018104;28;20618;-72
2021/04/14 07:02:29;;;;;;;1999.90;999.90;;;;;;;11.78;66.16;-18222.47;5017785;28;20671;-72
2021/04/14 07:05:21;;;;;;;1999.90;999.90;;;;;;;10.85;71.38;-18198.13;5054264;28;20518;-71
2021/04/14 07:08:18;;;;;;;1999.90;999.90;;;;;;;11.07;69.28;-18203.75;5057965;28;20224;-71
2021/04/14 07:11:05;;;;;;;1999.90;999.90;;;;;;;11.60;69.28;-18217.78;5056794;28;20297;-71
2021/04/14 07:13:50;;;;;;;1999.90;999.90;;;;;;;8.61;80.44;-18139.13;5058004;28;20594;-72
2021/04/14 07:16:58;;;;;;;1999.90;999.90;;;;;;;8.48;88.76;-18135.63;5057760;28;20201;-72
2021/04/14 07:20:02;;;;;;;1999.90;999.90;;;;;;;8.30;92.58;-18130.81;5057334;28;20213;-72
2021/04/14 07:23:05;;;;;;;1999.90;999.90;;;;;;;10.46;83.62;-18187.69;5057449;28;20247;-72
2021/04/14 07:25:56;;;;;;;1999.90;999.90;;;;;;;9.50;83.15;-18162.56;5057572;28;20201;-72
2021/04/14 07:28:56;;;;;;;1999.90;999.90;;;;;;;10.81;78.77;-18196.94;5057391;28;20283;-72
2021/04/14 07:31:51;;;;;;;1999.90;999.90;;;;;;;10.48;77.42;-18188.38;5057302;28;20332;-71
2021/04/14 07:34:59;;;;;;;1999.90;999.90;;;;;;;9.33;85.32;-18158.13;5057586;28;20348;-72
2021/04/14 07:37:57;;;;;;;1999.90;999.90;;;;;;;9.20;85.94;-18154.53;5057306;28;20251;-72
2021/04/14 07:40:51;;;;;;;1999.90;999.90;;;;;;;10.41;83.90;-18186.50;5056319;28;20695;-71
2021/04/14 07:43:57;;;;;;;1999.90;999.90;;;;;;;9.91;86.60;-18173.38;5056791;28;20225;-72
2021/04/14 07:46:45;;;;;;;1999.90;999.90;;;;;;;10.60;83.19;-18191.44;5056581;28;20302;-72
2021/04/14 07:49:36;;;;;;;1999.90;999.90;;;;;;;10.54;85.42;-18189.97;5056989;28;20220;-72
2021/04/14 07:52:29;;;;;;;1999.90;999.90;;;;;;;10.70;80.23;-18194.25;5056014;28;20203;-72
2021/04/14 07:55:24;;;;;;;1999.90;999.90;;;;;;;9.83;84.85;-18171.09;5055712;28;20199;-71
2021/04/14 07:58:15;;;;;;;1999.90;999.90;;;;;;;10.35;85.96;-18184.91;5056207;28;20223;-71
2021/04/14 08:01:14;;;;;;;1999.90;999.90;;;;;;;9.86;86.64;-18172.03;5056138;28;20418;-72
2021/04/14 08:04:10;;;;;;;1999.90;999.90;;;;;;;10.77;83.69;-18195.84;5056177;28;20651;-72
2021/04/14 08:07:08;;;;;;;1999.90;999.90;;;;;;;12.29;72.06;-18235.94;5056542;28;20204;-72
2021/04/14 08:10:04;;;;;;;1999.90;999.90;;;;;;;11.34;77.07;-18210.97;5055879;28;20209;-72
2021/04/14 08:12:58;;;;;;;1999.90;999.90;;;;;;;9.82;85.74;-18170.84;5055398;28;20610;-71
2021/04/14 08:15:46;;;;;;;1999.90;999.90;;;;;;;8.19;94.92;-18127.88;5055913;28;20606;-72
2021/04/14 08:18:37;;;;;;;1999.90;999.90;;;;;;;7.98;100.00;-18122.25;5056385;28;20287;-72
2021/04/14 08:21:35;;;;;;;1999.90;999.90;;;;;;;7.17;100.00;-18101.06;5056265;28;20733;-72
2021/04/14 08:24:32;;;;;;;1999.90;999.90;;;;;;;6.71;100.00;-18088.72;5056052;28;20186;-72
2021/04/14 08:27:20;;;;;;;1999.90;999.90;;;;;;;7.71;100.00;-18115.13;5056100;28;20241;-72
2021/04/14 08:30:09;;;;;;;1999.90;999.90;;;;;;;8.81;98.03;-18144.22;5056244;28;20197;-72
2021/04/14 08:33:03;;;;;;;1999.90;999.90;;;;;;;9.57;92.50;-18164.28;5055618;28;20610;-72
2021/04/14 08:36:14;;;;;;;1999.90;999.90;;;;;;;11.87;76.75;-18225.00;5056254;28;20272;-72
2021/04/14 08:39:10;;;;;;;1999.90;999.90;;;;;;;9.44;85.53;-18160.81;5055790;28;20217;-72
2021/04/14 08:42:10;;;;;;;1999.90;999.90;;;;;;;10.07;80.11;-18177.53;5055782;28;20520;-72
2021/04/14 08:45:12;;;;;;;1999.90;999.90;;;;;;;12.74;70.73;-18247.94;5056549;28;20201;-74
2021/04/14 08:48:11;;;;;;;1999.90;999.90;;;;;;;12.18;66.92;-18233.13;5055657;28;20200;-73
2021/04/14 08:50:59;;;;;;;1999.90;999.90;;;;;;;14.42;62.67;-18291.97;5056078;28;20637;-74
2021/04/14 08:53:46;;;;;;;1999.90;999.90;;;;;;;12.60;63.83;-18244.09;5056360;28;20520;-71
2021/04/14 08:56:33;;;;;;;1999.90;999.90;;;;;;;10.17;70.86;-18180.22;5057784;28;20204;-80
2021/04/14 08:59:27;;;;;;;1999.90;999.90;;;;;;;11.29;69.82;-18209.75;5057121;28;20199;-72
2021/04/14 09:02:19;;;;;;;1999.90;999.90;;;;;;;10.70;71.02;-18194.25;5055723;28;20216;-70
2021/04/14 09:05:07;;;;;;;1999.90;999.90;;;;;;;9.49;77.31;-18162.16;5058612;28;20642;-72
2021/04/14 09:07:54;;;;;;;1999.90;999.90;;;;;;;9.10;80.41;-18151.97;5055881;28;20200;-74
2021/04/14 09:10:49;;;;;;;1999.90;999.90;;;;;;;9.25;80.26;-18155.84;5056967;28;20205;-75
2021/04/14 09:13:50;;;;;;;1999.90;999.90;;;;;;;11.01;71.34;-18202.28;5055638;28;20279;-73
2021/04/14 09:16:47;;;;;;;1999.90;999.90;;;;;;;11.28;65.04;-18209.50;5055497;28;20344;-75
2021/04/14 09:19:42;;;;;;;1999.90;999.90;;;;;;;12.03;62.97;-18229.13;5056289;28;20200;-74
2021/04/14 09:22:29;;;;;;;1999.90;999.90;;;;;;;12.69;61.48;-18246.63;5056244;28;20366;-74
2021/04/14 09:25:27;;;;;;;1999.90;999.90;;;;;;;12.58;59.69;-18243.56;5055699;28;20205;-74
2021/04/14 09:28:24;;;;;;;1999.90;999.90;;;;;;;12.97;55.01;-18253.81;5055958;28;20204;-75
2021/04/14 09:31:13;;;;;;;1999.90;999.90;;;;;;;13.87;57.20;-18277.56;5056413;28;20278;-75
2021/04/14 09:34:09;;;;;;;1999.90;999.90;;;;;;;12.91;58.61;-18252.34;5055326;28;20401;-75
2021/04/14 09:37:00;;;;;;;1999.90;999.90;;;;;;;9.58;69.59;-18164.69;5055705;28;20209;-74
2021/04/14 09:39:57;;;;;;;1999.90;999.90;;;;;;;9.42;77.29;-18160.28;5055917;28;20343;-75
2021/04/14 09:42:44;;;;;;;1999.90;999.90;;;;;;;9.42;73.99;-18160.28;5055257;28;20237;-75
2021/04/14 09:45:38;;;;;;;1999.90;999.90;;;;;;;9.22;71.04;-18155.06;5056331;28;20201;-75
2021/04/14 09:48:23;;;;;;;1999.90;999.90;;;;;;;8.40;76.17;-18133.38;5055560;28;20224;-75
2021/04/14 09:51:23;;;;;;;1999.90;999.90;;;;;;;8.56;78.51;-18137.66;5055313;28;20193;-75
2021/04/14 09:54:15;;;;;;;1999.90;999.90;;;;;;;8.49;79.29;-18135.91;5055336;28;20196;-75
2021/04/14 09:57:05;;;;;;;1999.90;999.90;;;;;;;8.33;82.66;-18131.63;5054707;28;20247;-75
2021/04/14 10:00:00;;;;;;;1999.90;999.90;;;;;;;7.65;83.11;-18113.53;5055332;28;20348;-75
2021/04/14 10:02:47;;;;;;;1999.90;999.90;;;;;;;7.36;80.98;-18106.03;5055619;28;20232;-75
2021/04/14 10:05:37;;;;;;;1999.90;999.90;;;;;;;7.76;81.83;-18116.47;5055291;28;20196;-75
2021/04/14 10:08:29;;;;;;;1999.90;999.90;;;;;;;8.24;77.21;-18129.22;5055220;28;20359;-75
2021/04/14 10:11:33;;;;;;;1999.90;999.90;;;;;;;8.17;74.94;-18127.34;5055921;28;20200;-74
2021/04/14 10:14:20;;;;;;;1999.90;999.90;;;;;;;9.01;71.42;-18149.56;5055468;28;20218;-78
2021/04/14 10:17:09;;;;;;;1999.90;999.90;;;;;;;10.62;66.38;-18192.13;5055722;28;20602;-75
2021/04/14 10:19:56;;;;;;;1999.90;999.90;;;;;;;12.14;55.84;-18231.94;5045031;28;20207;-73
2021/04/14 10:22:46;;;;;;;1999.90;999.90;;;;;;;12.17;54.38;-18232.75;5039134;28;20228;-74
2021/04/14 10:25:36;;;;;;;1999.90;999.90;;;;;;;11.11;58.93;-18204.94;5039668;28;20352;-74
2021/04/14 10:28:26;;;;;;;1999.90;999.90;;;;;;;10.84;60.15;-18197.72;5039388;28;20201;-75
2021/04/14 10:31:15;;;;;;;1999.90;999.90;;;;;;;10.19;62.08;-18180.75;5038689;28;20205;-75
2021/04/14 10:34:10;;;;;;;1999.90;999.90;;;;;;;10.26;61.18;-18182.50;5038399;28;20209;-75
2021/04/14 10:36:58;;;;;;;1999.90;999.90;;;;;;;9.68;65.31;-18167.38;5038894;28;20201;-75
2021/04/14 10:39:44;;;;;;;1999.90;999.90;;;;;;;9.72;64.43;-18168.16;5038530;28;20205;-75
2021/04/14 10:42:30;;;;;;;1999.90;999.90;;;;;;;9.37;65.47;-18158.94;5039362;28;20225;-74
2021/04/14 10:45:20;;;;;;;1999.90;999.90;;;;;;;9.39;64.29;-18159.47;5041696;28;20270;-73
2021/04/14 10:48:07;;;;;;;1999.90;999.90;;;;;;;9.59;66.46;-18164.81;5040661;28;20210;-72
2021/04/14 10:51:09;;;;;;;1999.90;999.90;;;;;;;9.46;64.04;-18161.34;5039084;28;20202;-72
2021/04/14 10:54:07;;;;;;;1999.90;999.90;;;;;;;9.16;64.50;-18153.44;5039138;28;20205;-72
2021/04/14 10:57:04;;;;;;;1999.90;999.90;;;;;;;9.47;63.78;-18161.75;5039833;28;20254;-72
2021/04/14 10:59:51;;;;;;;1999.90;999.90;;;;;;;9.25;65.48;-18156.00;5039541;28;20209;-72
2021/04/14 11:02:42;;;;;;;1999.90;999.90;;;;;;;9.06;66.88;-18150.78;5038912;28;20225;-72
2021/04/14 11:05:29;;;;;;;1999.90;999.90;;;;;;;9.16;65.55;-18153.59;5039692;28;20232;-72
2021/04/14 11:08:17;;;;;;;1999.90;999.90;;;;;;;9.26;66.93;-18156.25;5039933;28;20607;-72
2021/04/14 11:11:04;;;;;;;1999.90;999.90;;;;;;;9.81;66.17;-18170.56;5039873;28;20472;-71
2021/04/14 11:13:50;;;;;;;1999.90;999.90;;;;;;;11.15;60.86;-18205.88;5040081;28;20533;-72
2021/04/14 11:16:38;;;;;;;1999.90;999.90;;;;;;;10.98;65.29;-18201.47;5038342;28;20380;-71
2021/04/14 11:19:34;;;;;;;1999.90;999.90;;;;;;;10.84;63.04;-18197.72;5038194;28;20695;-72
2021/04/14 11:22:20;;;;;;;1999.90;999.90;;;;;;;11.48;58.94;-18214.56;5039227;28;20201;-72
2021/04/14 11:25:07;;;;;;;1999.90;999.90;;;;;;;12.27;55.81;-18235.41;5039747;28;20205;-72
2021/04/14 11:28:01;;;;;;;1999.90;999.90;;;;;;;12.38;51.64;-18238.34;5039105;28;20483;-72
2021/04/14 11:30:54;;;;;;;1999.90;999.90;;;;;;;12.92;44.76;-18252.63;5039507;28;20614;-72
2021/04/14 11:33:45;;;;;;;1999.90;999.90;;;;;;;12.72;47.10;-18247.41;5038465;28;20244;-72
2021/04/14 11:36:33;;;;;;;1999.90;999.90;;;;;;;13.86;44.98;-18277.31;5038632;28;20204;-72
2021/04/14 11:39:20;;;;;;;1999.90;999.90;;;;;;;12.25;47.88;-18235.00;5037564;28;20201;-72
2021/04/14 11:42:13;;;;;;;1999.90;999.90;;;;;;;12.73;46.71;-18247.69;5038466;28;20205;-72
2021/04/14 11:45:00;;;;;;;1999.90;999.90;;;;;;;12.71;46.00;-18247.16;5038143;28;20206;-72
2021/04/14 11:47:48;;;;;;;1999.90;999.90;;;;;;;12.52;50.67;-18241.94;5038482;28;20486;-74
2021/04/14 11:50:36;;;;;;;1999.90;999.90;;;;;;;11.71;52.20;-18220.84;5035941;28;20201;-74
2021/04/14 11:53:23;;;;;;;1999.90;999.90;;;;;;;11.59;50.34;-18217.50;5036869;28;20344;-73
2021/04/14 11:56:28;;;;;;;1999.90;999.90;;;;;;;11.28;51.80;-18209.50;5036953;28;20308;-73
2021/04/14 11:59:26;;;;;;;1999.90;999.90;;;;;;;13.61;48.12;-18270.63;5036682;28;20201;-72
2021/04/14 12:02:22;;;;;;;1999.90;999.90;;;;;;;13.56;47.35;-18269.44;5037105;28;20197;-71
2021/04/14 12:05:12;;;;;;;1999.90;999.90;;;;;;;13.73;47.10;-18273.84;5036267;28;20240;-70
2021/04/14 12:08:01;;;;;;;1999.90;999.90;;;;;;;12.85;44.28;-18250.75;5037553;28;20201;-77
2021/04/14 12:10:48;;;;;;;1999.90;999.90;;;;;;;13.97;42.98;-18280.25;5037327;28;20608;-75
2021/04/14 12:13:33;;;;;;;1999.90;999.90;;;;;;;14.50;41.81;-18294.09;5037561;28;20197;-73
2021/04/14 12:16:19;;;;;;;1999.90;999.90;;;;;;;13.70;43.86;-18273.03;5035216;28;20220;-73
2021/04/14 12:19:08;;;;;;;1999.90;999.90;;;;;;;12.18;48.54;-18233.13;5035924;28;20212;-72
2021/04/14 12:21:55;;;;;;;1999.90;999.90;;;;;;;11.10;52.91;-18204.53;5036650;28;20205;-72
2021/04/14 12:24:46;;;;;;;1999.90;999.90;;;;;;;10.55;64.43;-18190.09;5036628;28;20500;-72
2021/04/14 12:27:41;;;;;;;1999.90;999.90;;;;;;;9.34;71.66;-18158.28;5035991;28;20296;-73